Time;durP1;ratioP1;P1;durP2;ratioP2;P2;SDS_P1;SDS_P2;PMS_P1;PMS_P2;Temp;Humidity;BMP_temperature;BMP_pressure;BME280_temperature;BME280_humidity;BME280_pressure;Samples;Min_cycle;Max_cycle;Signal;HPM_P1;HPM_P2
2022/01/12 00:00:27;;;;;;;5.60;4.37;;;-1.10;99.90;;;;;;5017086;28;20278;-73
2022/01/12 00:02:53;;;;;;;3.53;3.23;;;-1.20;99.90;;;;;;5019663;28;20769;-73
2022/01/12 00:05:20;;;;;;;6.70;4.70;;;-1.20;99.90;;;;;;5016382;28;20491;-72
2022/01/12 00:07:47;;;;;;;12.80;6.27;;;-0.60;99.90;;;;;;5015517;28;20697;-72
2022/01/12 00:10:13;;;;;;;6.77;5.07;;;-0.20;99.90;;;;;;5015456;28;20423;-72
2022/01/12 00:12:38;;;;;;;8.07;5.67;;;-0.80;99.90;;;;;;5015100;28;20940;-72
2022/01/12 00:15:05;;;;;;;14.20;7.17;;;-1.00;99.90;;;;;;5015069;28;20187;-71
2022/01/12 00:17:30;;;;;;;9.43;5.70;;;-1.10;99.90;;;;;;5015214;28;20272;-72
2022/01/12 00:19:55;;;;;;;7.93;7.07;;;-1.10;99.90;;;;;;5014931;28;20454;-72
2022/01/12 00:22:21;;;;;;;16.33;5.53;;;-1.10;99.90;;;;;;5015073;28;20175;-71
2022/01/12 00:35:35;;;;;;;16.67;7.50;;;-1.20;99.90;;;;;;5014714;28;20410;-71
2022/01/12 00:38:01;;;;;;;7.97;6.77;;;-1.20;99.90;;;;;;5014687;28;20455;-72
2022/01/12 00:40:26;;;;;;;13.00;5.47;;;-1.20;99.90;;;;;;5014673;28;20473;-72
2022/01/12 00:42:52;;;;;;;13.63;6.90;;;-1.20;99.90;;;;;;5014815;28;20176;-72
2022/01/12 00:45:19;;;;;;;12.07;6.27;;;-1.20;99.90;;;;;;5015009;28;20172;-72
2022/01/12 00:47:44;;;;;;;8.10;5.20;;;-1.20;99.90;;;;;;5015846;28;20910;-72
2022/01/12 00:50:10;;;;;;;20.53;8.90;;;-1.20;99.90;;;;;;5014615;28;20422;-72
2022/01/12 00:52:36;;;;;;;19.07;7.07;;;-1.20;99.90;;;;;;5014631;28;20183;-73
2022/01/12 00:55:02;;;;;;;15.23;6.53;;;-1.10;99.90;;;;;;5014556;28;20411;-72
2022/01/12 00:57:27;;;;;;;10.57;5.77;;;-1.20;99.90;;;;;;5014147;28;20199;-71
2022/01/12 00:59:53;;;;;;;8.03;6.87;;;-1.20;99.90;;;;;;5014286;28;20423;-72
2022/01/12 01:02:18;;;;;;;5.97;5.47;;;-1.10;99.90;;;;;;5014523;28;20645;-71
2022/01/12 01:04:44;;;;;;;11.77;5.43;;;-1.10;99.90;;;;;;5014261;28;20176;-71
2022/01/12 01:07:09;;;;;;;17.30;6.50;;;-1.00;99.90;;;;;;5014714;28;20172;-72
2022/01/12 01:09:39;;;;;;;7.07;5.67;;;-1.00;99.90;;;;;;5015585;28;20188;-72
2022/01/12 01:12:06;;;;;;;12.40;6.97;;;-1.00;99.90;;;;;;5015579;28;20179;-71
2022/01/12 01:14:48;;;;;;;10.10;6.73;;;-1.00;99.90;;;;;;5015755;28;20413;-72
2022/01/12 01:25:28;;;;;;;25.10;9.23;;;-1.00;99.90;;;;;;5014514;28;20823;-72
2022/01/12 01:25:42;;;;;;;9.57;6.70;;;-1.00;99.90;;;;;;5014041;28;20438;-72
2022/01/12 01:28:07;;;;;;;14.17;7.87;;;-0.90;99.90;;;;;;5014331;28;20407;-71
2022/01/12 01:30:36;;;;;;;10.00;5.57;;;-0.90;99.90;;;;;;5014597;28;20842;-72
2022/01/12 01:33:05;;;;;;;18.90;6.67;;;-1.00;99.90;;;;;;5018803;28;20180;-72
2022/01/12 01:35:32;;;;;;;11.90;6.40;;;-1.00;99.90;;;;;;5018566;28;20411;-71
2022/01/12 01:38:00;;;;;;;14.83;6.17;;;-1.00;99.90;;;;;;5018712;28;20673;-72
2022/01/12 01:40:26;;;;;;;8.10;5.30;;;-0.90;99.90;;;;;;5026791;22;20537;-68
2022/01/12 01:53:39;;;;;;;6.30;4.47;;;-0.90;99.90;;;;;;5013099;28;20983;-69
2022/01/12 01:56:05;;;;;;;5.67;4.77;;;-0.90;99.90;;;;;;5013046;28;20416;-68
2022/01/12 01:58:31;;;;;;;6.00;3.63;;;-0.90;99.90;;;;;;5013009;28;20546;-68
2022/01/12 02:00:56;;;;;;;7.13;6.50;;;-1.00;99.90;;;;;;4998226;28;20944;-68
2022/01/12 02:03:26;;;;;;;10.53;3.90;;;-0.90;99.90;;;;;;5012873;28;20164;-68
2022/01/12 02:05:51;;;;;;;11.00;5.30;;;-0.90;99.90;;;;;;5004043;28;20169;-69
2022/01/12 02:08:17;;;;;;;8.70;5.77;;;-1.00;99.90;;;;;;4993362;28;20415;-68
2022/01/12 02:10:42;;;;;;;6.87;4.17;;;-0.90;99.90;;;;;;4993177;28;20185;-68
2022/01/12 02:13:09;;;;;;;6.87;4.50;;;-0.80;99.90;;;;;;4991691;28;20241;-69
2022/01/12 02:15:35;;;;;;;11.27;7.03;;;-0.80;99.90;;;;;;4993310;28;20173;-68
2022/01/12 02:18:12;;;;;;;8.53;2.70;;;-0.80;99.90;;;;;;4993267;28;20459;-68
2022/01/12 02:39:50;;;;;;;13.10;8.27;;;-0.80;99.90;;;;;;4913564;29;20502;-69
2022/01/12 02:40:23;;;;;;;6.40;3.17;;;-0.80;99.90;;;;;;4913321;29;20917;-70
2022/01/12 02:42:58;;;;;;;5.83;5.20;;;-0.70;99.90;;;;;;4965967;28;20755;-69
2022/01/12 02:51:12;;;;;;;6.30;4.03;;;-0.70;99.90;;;;;;4992879;28;20432;-67
2022/01/12 02:53:40;;;;;;;14.47;6.17;;;-0.60;99.90;;;;;;4992485;28;20926;-67
2022/01/12 02:56:11;;;;;;;13.90;7.03;;;-0.60;99.90;;;;;;4992374;28;20409;-69
2022/01/12 02:58:38;;;;;;;8.60;4.57;;;-0.70;99.90;;;;;;4992459;28;20455;-69
2022/01/12 03:01:32;;;;;;;13.57;7.00;;;-0.70;99.90;;;;;;4992416;28;20431;-67
2022/01/12 03:03:56;;;;;;;7.60;5.10;;;-0.70;99.90;;;;;;4992219;28;20448;-66
2022/01/12 03:06:27;;;;;;;6.10;5.53;;;-0.60;99.90;;;;;;4991034;28;20503;-68
2022/01/12 03:08:53;;;;;;;13.40;5.43;;;-0.60;99.90;;;;;;4992407;28;20416;-69
2022/01/12 03:11:21;;;;;;;9.67;6.40;;;-0.70;99.90;;;;;;4991953;28;20446;-69
2022/01/12 03:13:47;;;;;;;9.27;5.27;;;-0.70;99.90;;;;;;4992527;28;20977;-69
2022/01/12 03:16:15;;;;;;;5.73;5.27;;;-0.70;99.90;;;;;;4992333;28;20404;-68
2022/01/12 03:19:03;;;;;;;9.40;6.10;;;-0.60;99.90;;;;;;4992165;28;20502;-69
2022/01/12 03:21:31;;;;;;;15.13;7.50;;;-0.70;99.90;;;;;;4992189;28;20432;-68
2022/01/12 03:23:56;;;;;;;4.43;3.27;;;-0.60;99.90;;;;;;4992045;28;20499;-67
2022/01/12 03:26:24;;;;;;;6.40;5.73;;;-0.70;99.90;;;;;;4991893;28;20435;-69
2022/01/12 03:28:54;;;;;;;8.20;4.97;;;-0.60;99.90;;;;;;4992050;28;20239;-68
2022/01/12 03:31:23;;;;;;;10.07;4.50;;;-0.60;99.90;;;;;;4991976;28;20432;-68
2022/01/12 03:33:57;;;;;;;8.83;6.37;;;-0.60;99.90;;;;;;4991830;28;20831;-71
2022/01/12 03:36:28;;;;;;;11.83;5.30;;;-0.60;99.90;;;;;;4992064;28;20435;-68
2022/01/12 03:38:59;;;;;;;15.27;5.37;;;-0.50;99.90;;;;;;4992124;28;20459;-68
2022/01/12 03:41:27;;;;;;;8.17;5.90;;;-0.50;99.90;;;;;;4991717;28;21037;-68
2022/01/12 03:43:55;;;;;;;10.60;3.67;;;-0.50;99.90;;;;;;4991907;28;20770;-68
2022/01/12 03:46:34;;;;;;;11.13;6.40;;;-0.60;99.90;;;;;;4991829;28;20490;-68
2022/01/12 03:49:00;;;;;;;10.37;3.30;;;-0.60;99.90;;;;;;4991932;28;20848;-69
2022/01/12 03:51:25;;;;;;;11.93;6.43;;;-0.60;99.90;;;;;;4991901;28;20510;-68
2022/01/12 03:53:51;;;;;;;14.10;4.80;;;-0.50;99.90;;;;;;4991755;28;20239;-69
2022/01/12 03:56:17;;;;;;;12.63;6.17;;;-0.40;99.90;;;;;;4991761;28;20709;-69
2022/01/12 03:58:43;;;;;;;14.20;4.93;;;-0.40;99.90;;;;;;4991877;28;20209;-68
2022/01/12 04:01:09;;;;;;;11.07;5.13;;;-0.40;99.90;;;;;;4991825;28;20193;-67
2022/01/12 04:03:39;;;;;;;9.80;5.40;;;-0.40;99.90;;;;;;4991763;28;20168;-68
2022/01/12 04:08:49;;;;;;;14.30;5.80;;;-0.30;99.90;;;;;;4992114;28;20416;-69
2022/01/12 04:11:15;;;;;;;11.97;6.93;;;-0.40;99.90;;;;;;4991754;28;20428;-70
2022/01/12 04:13:42;;;;;;;16.43;4.07;;;-0.40;99.90;;;;;;4993242;28;20264;-68
2022/01/12 04:16:08;;;;;;;9.60;6.50;;;-0.30;99.90;;;;;;5011525;28;20533;-69
2022/01/12 04:18:34;;;;;;;8.17;5.60;;;-0.30;99.90;;;;;;5011306;28;20454;-68
2022/01/12 04:21:03;;;;;;;7.43;6.70;;;-0.30;99.90;;;;;;5011697;28;20272;-68
2022/01/12 04:23:29;;;;;;;10.20;6.00;;;-0.40;99.90;;;;;;5011976;28;20399;-69
2022/01/12 04:25:57;;;;;;;10.23;6.63;;;-0.40;99.90;;;;;;5015058;28;20403;-68
2022/01/12 04:28:24;;;;;;;15.47;6.27;;;-0.40;99.90;;;;;;5014795;28;20902;-68
2022/01/12 04:30:51;;;;;;;8.37;3.93;;;-0.40;99.90;;;;;;5014753;28;20858;-69
2022/01/12 04:33:18;;;;;;;6.87;6.00;;;-0.30;99.90;;;;;;5014590;28;20435;-69
2022/01/12 04:35:49;;;;;;;11.60;5.57;;;-0.30;99.90;;;;;;5014754;28;20449;-68
2022/01/12 04:38:17;;;;;;;10.13;6.20;;;-0.30;99.90;;;;;;5014598;28;20450;-67
2022/01/12 04:40:43;;;;;;;10.50;5.57;;;-0.30;99.90;;;;;;5014321;28;20925;-68
2022/01/12 04:43:10;;;;;;;13.07;4.90;;;-0.30;99.90;;;;;;5014511;28;20430;-68
2022/01/12 04:46:08;;;;;;;11.70;6.27;;;-0.30;99.90;;;;;;5014294;28;20494;-68
2022/01/12 04:48:36;;;;;;;16.33;4.63;;;-0.30;99.90;;;;;;5014155;28;20411;-69
2022/01/12 04:51:02;;;;;;;8.77;7.73;;;-0.20;99.90;;;;;;5014462;28;20423;-69
2022/01/12 04:53:30;;;;;;;22.23;4.90;;;-0.20;99.90;;;;;;5014145;28;20407;-69
2022/01/12 04:55:56;;;;;;;7.03;4.80;;;-0.20;99.90;;;;;;5014101;28;20399;-68
2022/01/12 04:58:22;;;;;;;10.50;6.20;;;-0.20;99.90;;;;;;5014155;28;20926;-68
2022/01/12 05:00:50;;;;;;;7.83;5.23;;;-0.10;99.90;;;;;;5014224;28;20510;-68
2022/01/12 05:13:54;;;;;;;9.13;6.90;;;-0.20;99.90;;;;;;5013921;28;20179;-69
2022/01/12 05:16:21;;;;;;;13.50;6.30;;;-0.20;99.90;;;;;;5013856;28;20435;-68
2022/01/12 05:18:48;;;;;;;13.60;6.57;;;-0.20;99.90;;;;;;5013835;28;20469;-68
2022/01/12 05:21:15;;;;;;;6.33;4.30;;;-0.10;99.90;;;;;;5013859;28;20423;-68
2022/01/12 05:23:41;;;;;;;22.17;6.93;;;-0.10;99.90;;;;;;5013775;28;20473;-68
2022/01/12 05:26:07;;;;;;;6.50;4.87;;;-0.10;99.90;;;;;;5013599;28;20870;-68
2022/01/12 05:28:34;;;;;;;14.73;9.10;;;-0.10;99.90;;;;;;5013749;28;20175;-68
2022/01/12 05:31:01;;;;;;;12.53;6.33;;;-0.10;99.90;;;;;;5013531;28;20844;-68
2022/01/12 05:33:27;;;;;;;8.17;5.97;;;0.00;99.90;;;;;;5013581;28;20415;-68
2022/01/12 05:35:55;;;;;;;9.70;5.97;;;0.00;99.90;;;;;;5013343;28;20893;-68
2022/01/12 05:38:21;;;;;;;9.37;5.70;;;0.00;99.90;;;;;;5013561;28;20458;-69
2022/01/12 05:40:49;;;;;;;15.23;8.00;;;0.00;99.90;;;;;;5013394;28;20438;-69
2022/01/12 05:43:24;;;;;;;8.67;4.87;;;0.00;99.90;;;;;;5013482;28;20446;-69
2022/01/12 05:45:51;;;;;;;11.23;4.53;;;0.00;99.90;;;;;;5013336;28;20422;-70
2022/01/12 05:50:42;;;;;;;5.73;2.93;;;-0.10;99.90;;;;;;5013332;28;20802;-68
2022/01/12 05:53:09;;;;;;;6.43;5.37;;;-0.10;99.90;;;;;;5013327;28;20601;-71
2022/01/12 05:55:34;;;;;;;14.53;7.53;;;0.00;99.90;;;;;;5013149;28;20412;-68
2022/01/12 05:58:00;;;;;;;8.10;4.20;;;0.00;99.90;;;;;;5013134;28;20478;-68
2022/01/12 06:00:28;;;;;;;8.77;4.63;;;-0.10;99.90;;;;;;5012812;28;20191;-69
2022/01/12 06:02:54;;;;;;;9.00;4.73;;;-0.10;99.90;;;;;;5013027;28;20164;-68
2022/01/12 06:05:22;;;;;;;12.23;6.03;;;-0.20;99.90;;;;;;5012892;28;20408;-68
2022/01/12 06:07:51;;;;;;;9.60;5.30;;;-0.30;99.90;;;;;;5013134;28;20920;-69
2022/01/12 06:10:20;;;;;;;17.13;5.10;;;-0.20;99.90;;;;;;5012909;28;20798;-69
2022/01/12 06:12:46;;;;;;;7.47;5.37;;;-0.30;99.90;;;;;;5012793;28;20785;-68
2022/01/12 06:15:11;;;;;;;9.07;4.83;;;-0.40;99.90;;;;;;5006943;28;20416;-68
2022/01/12 06:17:37;;;;;;;12.10;4.97;;;-0.40;99.90;;;;;;4995576;28;20218;-68
2022/01/12 06:20:05;;;;;;;5.10;4.70;;;-0.40;99.90;;;;;;4996148;28;20270;-70
2022/01/12 06:22:30;;;;;;;15.23;5.10;;;-0.40;99.90;;;;;;5012270;28;20176;-67
2022/01/12 06:24:58;;;;;;;7.83;4.10;;;-0.50;99.90;;;;;;5012473;28;20407;-68
2022/01/12 06:27:28;;;;;;;11.13;4.67;;;-0.40;99.90;;;;;;5012656;28;20176;-68
2022/01/12 06:32:38;;;;;;;4.27;3.70;;;-0.40;99.90;;;;;;5009770;28;20485;-68
2022/01/12 06:35:03;;;;;;;12.30;3.93;;;-0.40;99.90;;;;;;4994375;28;20976;-70
2022/01/12 06:37:29;;;;;;;5.37;4.07;;;-0.40;99.90;;;;;;5012400;28;20180;-69
2022/01/12 06:39:54;;;;;;;6.00;3.53;;;-0.50;99.90;;;;;;5012116;28;20208;-68
2022/01/12 06:42:20;;;;;;;12.10;3.53;;;-0.50;99.90;;;;;;5012057;28;20169;-68
2022/01/12 06:44:48;;;;;;;6.63;3.40;;;-0.50;99.90;;;;;;5011956;28;20712;-69
2022/01/12 06:47:13;;;;;;;12.53;7.30;;;-0.40;99.90;;;;;;5011878;28;20160;-67
2022/01/12 06:49:39;;;;;;;6.83;4.07;;;-0.50;99.90;;;;;;5012382;28;20909;-70
2022/01/12 06:52:05;;;;;;;14.43;6.33;;;-0.50;99.90;;;;;;5012390;28;20608;-69
2022/01/12 06:54:30;;;;;;;5.53;2.40;;;-0.50;99.90;;;;;;5012435;28;20165;-68
2022/01/12 06:56:56;;;;;;;3.50;3.17;;;-0.40;99.90;;;;;;5012510;28;20235;-69
2022/01/12 06:59:21;;;;;;;15.57;5.20;;;-0.40;99.90;;;;;;5012185;28;20206;-69
2022/01/12 07:01:47;;;;;;;10.70;3.83;;;-0.40;99.90;;;;;;5012109;28;20507;-69
2022/01/12 07:04:12;;;;;;;7.60;4.83;;;-0.40;99.90;;;;;;5012035;28;20192;-70
2022/01/12 07:06:37;;;;;;;10.40;5.67;;;-0.40;99.90;;;;;;5012112;28;20623;-69
2022/01/12 07:09:04;;;;;;;11.87;5.27;;;-0.40;99.90;;;;;;5012188;28;20165;-69
2022/01/12 07:11:30;;;;;;;6.63;5.17;;;-0.30;99.90;;;;;;5012272;28;20219;-69
2022/01/12 07:13:55;;;;;;;7.60;4.03;;;-0.30;99.90;;;;;;5012224;28;20901;-69
2022/01/12 07:16:21;;;;;;;6.20;4.50;;;-0.30;99.90;;;;;;5012048;28;20412;-69
2022/01/12 07:18:46;;;;;;;10.33;4.90;;;-0.20;99.90;;;;;;5011912;28;20241;-69
2022/01/12 07:21:12;;;;;;;12.27;5.57;;;-0.20;99.90;;;;;;5011842;28;20264;-69
2022/01/12 07:23:37;;;;;;;10.33;3.50;;;-0.20;99.90;;;;;;5011949;28;20160;-68
2022/01/12 07:26:03;;;;;;;15.07;4.73;;;-0.20;99.90;;;;;;5012181;28;20578;-69
2022/01/12 07:28:28;;;;;;;13.07;6.80;;;-0.20;99.90;;;;;;5012175;28;20595;-70
2022/01/12 07:30:54;;;;;;;14.40;6.07;;;-0.10;99.90;;;;;;5011907;28;20188;-69
2022/01/12 07:33:20;;;;;;;10.97;6.77;;;-0.10;99.90;;;;;;5011735;28;20263;-68
2022/01/12 07:35:46;;;;;;;15.00;8.77;;;0.00;99.90;;;;;;5012025;28;20172;-68
2022/01/12 07:38:12;;;;;;;18.50;8.13;;;0.00;99.90;;;;;;5011797;28;20455;-69
2022/01/12 07:40:37;;;;;;;13.73;6.33;;;0.10;99.90;;;;;;5034179;23;20259;-70
2022/01/12 07:43:04;;;;;;;10.27;4.70;;;0.20;99.90;;;;;;5008916;28;20226;-70
2022/01/12 07:45:29;;;;;;;10.77;5.87;;;0.10;99.90;;;;;;5005546;28;20160;-68
2022/01/12 07:47:55;;;;;;;12.30;8.73;;;0.20;99.90;;;;;;5002332;28;20791;-69
2022/01/12 07:50:20;;;;;;;13.27;9.73;;;0.20;99.90;;;;;;4990342;28;20227;-70
2022/01/12 07:52:46;;;;;;;12.00;6.13;;;0.30;99.90;;;;;;4993280;28;20502;-69
2022/01/12 07:55:12;;;;;;;7.90;4.60;;;0.40;99.90;;;;;;4990345;28;20171;-71
2022/01/12 07:57:38;;;;;;;9.07;7.30;;;0.40;99.90;;;;;;4992361;28;20173;-71
2022/01/12 08:00:05;;;;;;;10.73;6.63;;;0.50;99.90;;;;;;4996458;28;20706;-70
2022/01/12 08:02:31;;;;;;;13.73;7.67;;;0.60;99.90;;;;;;5001892;28;20505;-72
2022/01/12 08:04:56;;;;;;;7.60;6.87;;;0.60;99.90;;;;;;5015113;28;20498;-70
2022/01/12 08:07:22;;;;;;;14.90;7.70;;;0.70;99.90;;;;;;5014272;28;20164;-71
2022/01/12 08:09:47;;;;;;;5.60;4.33;;;0.70;99.90;;;;;;5013264;28;20180;-70
2022/01/12 08:12:13;;;;;;;8.90;7.67;;;0.80;99.90;;;;;;4998370;28;20196;-70
2022/01/12 08:14:39;;;;;;;14.97;6.80;;;0.80;99.90;;;;;;5014546;28;20183;-70
2022/01/12 08:17:05;;;;;;;8.90;5.73;;;0.90;99.90;;;;;;5011086;28;20212;-70
2022/01/12 08:19:34;;;;;;;20.40;9.53;;;0.90;99.90;;;;;;5013961;28;20208;-69
2022/01/12 08:22:00;;;;;;;26.60;10.07;;;0.90;99.90;;;;;;5014244;28;20202;-70
2022/01/12 08:24:25;;;;;;;15.90;7.53;;;1.00;99.90;;;;;;5014642;28;20882;-70
2022/01/12 08:26:51;;;;;;;22.17;7.97;;;1.00;99.90;;;;;;5014619;28;20180;-70
2022/01/12 08:29:17;;;;;;;9.00;7.30;;;1.00;99.90;;;;;;5014724;28;20678;-72
2022/01/12 08:31:43;;;;;;;14.73;6.57;;;1.00;99.90;;;;;;5013118;28;20287;-70
2022/01/12 08:34:10;;;;;;;6.50;3.67;;;1.00;99.90;;;;;;5014389;28;21069;-71
2022/01/12 08:36:40;;;;;;;21.30;6.53;;;1.10;99.90;;;;;;5014329;28;20418;-70
2022/01/12 08:39:09;;;;;;;17.73;6.20;;;1.10;99.90;;;;;;5014043;28;20465;-70
2022/01/12 08:41:36;;;;;;;19.00;7.93;;;1.20;99.90;;;;;;5013849;28;20725;-69
2022/01/12 08:44:05;;;;;;;20.80;8.63;;;1.30;99.90;;;;;;5013851;28;20438;-69
2022/01/12 08:46:31;;;;;;;15.63;8.30;;;1.30;99.90;;;;;;5004878;28;20535;-69
2022/01/12 08:48:57;;;;;;;23.63;6.50;;;1.40;99.90;;;;;;5007189;28;20808;-69
2022/01/12 08:51:22;;;;;;;16.23;5.27;;;1.50;99.90;;;;;;5013776;28;20192;-69
2022/01/12 08:53:48;;;;;;;15.10;4.80;;;1.50;99.90;;;;;;5013609;28;20172;-69
2022/01/12 08:56:13;;;;;;;4.73;4.17;;;1.50;99.90;;;;;;5013601;28;20176;-71
2022/01/12 08:58:40;;;;;;;15.40;8.13;;;1.70;99.90;;;;;;5013778;28;20646;-71
2022/01/12 09:01:06;;;;;;;11.33;6.40;;;1.70;99.90;;;;;;5013839;28;20208;-70
2022/01/12 09:03:31;;;;;;;15.73;8.50;;;1.70;99.90;;;;;;5008250;28;20497;-69
2022/01/12 09:05:57;;;;;;;16.60;7.83;;;1.70;99.90;;;;;;4997690;28;20715;-69
2022/01/12 09:08:23;;;;;;;21.77;13.40;;;1.70;99.90;;;;;;4996472;28;20244;-69
2022/01/12 09:10:49;;;;;;;26.20;10.90;;;1.80;99.90;;;;;;5014825;28;20427;-69
2022/01/12 09:13:14;;;;;;;14.87;9.47;;;1.70;99.90;;;;;;5015689;28;20180;-69
2022/01/12 09:15:40;;;;;;;15.40;9.40;;;1.80;99.90;;;;;;5015851;28;20191;-70
2022/01/12 09:18:05;;;;;;;18.97;12.03;;;1.70;99.90;;;;;;5013864;28;20196;-70
2022/01/12 09:20:32;;;;;;;11.73;8.27;;;1.80;99.90;;;;;;5011456;28;20184;-69
2022/01/12 09:22:58;;;;;;;13.53;7.90;;;1.90;99.90;;;;;;5010210;28;20176;-70
2022/01/12 09:25:23;;;;;;;18.33;8.33;;;1.90;99.90;;;;;;5016916;28;20410;-70
2022/01/12 09:27:49;;;;;;;17.80;8.10;;;1.90;99.90;;;;;;5014596;28;20406;-70
2022/01/12 09:30:16;;;;;;;16.90;8.40;;;2.00;99.90;;;;;;5013540;28;20647;-69
2022/01/12 09:32:42;;;;;;;17.97;8.93;;;2.10;99.90;;;;;;5012231;28;20219;-70
2022/01/12 09:35:08;;;;;;;19.70;11.30;;;2.10;99.90;;;;;;5013624;28;20683;-69
2022/01/12 09:37:33;;;;;;;15.67;6.90;;;2.10;99.90;;;;;;5013440;28;20541;-69
2022/01/12 09:39:59;;;;;;;20.47;9.10;;;2.10;99.90;;;;;;5004576;28;20483;-69
2022/01/12 09:42:24;;;;;;;25.37;8.37;;;2.20;99.90;;;;;;5003343;28;20258;-70
2022/01/12 09:44:50;;;;;;;15.60;8.87;;;2.30;99.90;;;;;;5000292;28;20256;-70
2022/01/12 09:47:16;;;;;;;19.73;7.60;;;2.20;99.90;;;;;;5012906;28;20180;-70
2022/01/12 09:49:43;;;;;;;23.77;7.47;;;2.10;99.90;;;;;;5013278;28;20638;-70
2022/01/12 09:52:10;;;;;;;10.53;6.70;;;2.20;99.90;;;;;;5011365;28;20503;-70
2022/01/12 09:54:36;;;;;;;9.60;5.43;;;2.30;99.90;;;;;;5013072;28;20415;-70
2022/01/12 09:57:03;;;;;;;8.90;5.40;;;2.30;99.90;;;;;;5010399;28;20419;-70
2022/01/12 09:59:29;;;;;;;12.17;7.10;;;2.30;99.90;;;;;;5012817;28;20811;-70
2022/01/12 10:01:55;;;;;;;11.47;6.17;;;2.30;99.90;;;;;;5013244;28;20438;-70
2022/01/12 10:04:25;;;;;;;10.00;5.17;;;2.40;99.90;;;;;;5013098;28;20750;-71
2022/01/12 10:06:54;;;;;;;13.83;6.57;;;2.50;99.90;;;;;;5012830;28;20422;-70
2022/01/12 10:09:25;;;;;;;8.33;5.03;;;2.50;99.90;;;;;;5012796;28;20495;-72
2022/01/12 10:11:52;;;;;;;14.53;7.50;;;2.50;99.90;;;;;;5012218;28;20542;-70
2022/01/12 10:14:18;;;;;;;14.33;6.43;;;2.60;99.90;;;;;;5012588;28;20426;-70
2022/01/12 10:16:54;;;;;;;16.57;7.10;;;2.60;99.90;;;;;;5012664;28;20407;-70
2022/01/12 10:19:31;;;;;;;12.70;5.33;;;2.60;99.90;;;;;;5012321;28;20200;-70
2022/01/12 10:21:58;;;;;;;9.53;5.87;;;2.70;99.90;;;;;;5011501;28;20434;-70
2022/01/12 10:24:26;;;;;;;9.87;6.13;;;2.70;99.90;;;;;;5015880;28;20418;-70
2022/01/12 10:26:52;;;;;;;16.00;8.20;;;2.80;99.90;;;;;;5014958;28;20414;-70
2022/01/12 10:29:21;;;;;;;7.70;4.53;;;2.80;99.90;;;;;;5015734;28;20832;-70
2022/01/12 10:31:58;;;;;;;17.87;6.80;;;2.80;99.90;;;;;;5012384;28;20442;-70
2022/01/12 10:34:27;;;;;;;10.73;5.07;;;3.00;99.90;;;;;;5005346;28;20906;-70
2022/01/12 10:36:55;;;;;;;8.30;6.63;;;3.20;99.90;;;;;;5011927;28;20411;-70
2022/01/12 10:39:24;;;;;;;13.50;5.87;;;3.50;99.90;;;;;;5011854;28;20466;-70
2022/01/12 10:41:54;;;;;;;12.83;7.40;;;3.20;99.90;;;;;;5000325;28;20570;-70
2022/01/12 10:44:22;;;;;;;9.80;5.23;;;3.10;99.90;;;;;;4992768;28;20420;-70
2022/01/12 10:46:48;;;;;;;8.03;4.83;;;3.20;99.90;;;;;;4992942;28;20511;-69
2022/01/12 10:49:20;;;;;;;11.80;9.17;;;3.40;99.90;;;;;;4992244;28;20477;-70
2022/01/12 10:51:54;;;;;;;14.93;6.20;;;3.40;99.90;;;;;;5001473;28;20200;-70
2022/01/12 10:54:20;;;;;;;13.60;5.90;;;3.50;99.90;;;;;;5012023;28;20557;-70
2022/01/12 10:56:46;;;;;;;12.90;5.43;;;3.50;99.90;;;;;;5011951;28;20498;-70
2022/01/12 10:59:16;;;;;;;13.90;7.23;;;3.40;99.90;;;;;;5011925;28;20473;-70
2022/01/12 11:01:42;;;;;;;8.57;4.97;;;3.70;99.90;;;;;;5011658;28;20238;-71
2022/01/12 11:04:09;;;;;;;16.20;10.23;;;3.70;99.90;;;;;;5011989;28;20403;-70
2022/01/12 11:06:35;;;;;;;20.80;8.63;;;3.40;99.90;;;;;;5009951;28;20179;-70
2022/01/12 11:09:00;;;;;;;11.43;5.27;;;3.20;99.90;;;;;;4993247;28;20439;-70
2022/01/12 11:11:26;;;;;;;11.30;7.87;;;3.40;99.90;;;;;;5011024;28;20518;-70
2022/01/12 11:13:52;;;;;;;14.40;8.27;;;3.40;99.90;;;;;;5003486;28;20183;-69
2022/01/12 11:16:22;;;;;;;16.90;6.30;;;3.20;99.90;;;;;;5010340;28;20782;-69
2022/01/12 11:18:49;;;;;;;14.13;6.23;;;3.20;99.90;;;;;;5011866;28;20192;-70
2022/01/12 11:21:20;;;;;;;15.30;8.70;;;3.20;99.90;;;;;;5011809;28;20445;-70
2022/01/12 11:23:47;;;;;;;12.87;7.00;;;3.20;99.90;;;;;;5011762;28;20749;-69
2022/01/12 11:26:22;;;;;;;14.53;7.10;;;3.40;99.90;;;;;;5011655;28;20901;-69
2022/01/12 11:28:51;;;;;;;11.97;7.90;;;3.50;99.90;;;;;;5011332;28;20423;-69
2022/01/12 11:31:26;;;;;;;17.33;7.37;;;3.20;99.90;;;;;;5008981;28;20932;-69
2022/01/12 11:33:51;;;;;;;8.10;5.30;;;3.20;99.90;;;;;;5016872;28;20427;-69
2022/01/12 11:36:33;;;;;;;9.30;6.37;;;3.20;99.90;;;;;;5013413;28;20550;-70
2022/01/12 11:39:10;;;;;;;12.73;7.77;;;3.20;99.90;;;;;;5018380;28;20581;-69
2022/01/12 11:41:38;;;;;;;10.10;6.23;;;3.10;99.90;;;;;;5018011;28;20549;-69
2022/01/12 11:44:08;;;;;;;12.87;8.13;;;3.20;99.90;;;;;;5018494;28;20402;-70
2022/01/12 11:46:52;;;;;;;8.33;7.23;;;3.30;99.90;;;;;;5017938;28;20489;-71
2022/01/12 11:49:46;;;;;;;7.83;5.60;;;3.30;99.90;;;;;;5018202;28;20880;-71
2022/01/12 11:52:30;;;;;;;21.97;8.83;;;3.40;99.90;;;;;;5015354;28;20941;-70
2022/01/12 11:55:11;;;;;;;14.83;7.50;;;3.30;99.90;;;;;;5018239;28;20489;-70
2022/01/12 11:57:41;;;;;;;15.80;8.13;;;3.20;99.90;;;;;;5018323;28;20477;-70
2022/01/12 12:00:14;;;;;;;8.33;4.53;;;3.10;99.90;;;;;;5018094;28;20473;-71
2022/01/12 12:02:41;;;;;;;13.10;8.27;;;3.30;99.90;;;;;;5013489;28;20437;-70
2022/01/12 12:05:11;;;;;;;20.00;8.13;;;3.20;99.90;;;;;;5017887;28;20418;-70
2022/01/12 12:07:51;;;;;;;15.10;5.87;;;3.10;99.90;;;;;;5018006;28;20545;-69
2022/01/12 12:10:19;;;;;;;19.60;7.27;;;3.10;99.90;;;;;;5017926;28;20518;-70
2022/01/12 12:12:44;;;;;;;14.10;6.13;;;3.10;99.90;;;;;;5019373;28;20410;-71
2022/01/12 12:15:12;;;;;;;9.17;5.47;;;3.00;99.90;;;;;;5018968;28;20414;-69
2022/01/12 12:17:40;;;;;;;16.67;7.50;;;3.20;99.90;;;;;;5017918;28;20259;-70
2022/01/12 12:20:09;;;;;;;12.90;7.30;;;3.10;99.90;;;;;;5011845;28;20478;-70
2022/01/12 12:22:38;;;;;;;14.00;6.63;;;3.20;99.90;;;;;;5003044;28;21022;-69
2022/01/12 12:25:12;;;;;;;7.93;7.13;;;3.10;99.90;;;;;;5004916;28;20431;-69
2022/01/12 12:27:41;;;;;;;13.73;6.30;;;3.00;99.90;;;;;;5017554;28;20412;-69
2022/01/12 12:30:10;;;;;;;10.77;7.47;;;2.90;99.90;;;;;;5011204;28;20840;-69
2022/01/12 12:32:44;;;;;;;18.40;8.17;;;3.00;99.90;;;;;;4997817;28;20410;-69
2022/01/12 12:35:18;;;;;;;11.90;8.20;;;2.90;99.90;;;;;;4997874;28;20399;-69
2022/01/12 12:37:53;;;;;;;13.57;8.43;;;3.00;99.90;;;;;;5008697;28;20923;-69
2022/01/12 12:40:24;;;;;;;14.33;7.50;;;3.00;99.90;;;;;;5017144;28;20992;-68
2022/01/12 12:43:07;;;;;;;8.73;5.20;;;3.00;99.90;;;;;;5017399;28;20433;-69
2022/01/12 12:45:41;;;;;;;11.90;7.43;;;2.90;99.90;;;;;;5013819;28;20415;-69
2022/01/12 12:48:08;;;;;;;20.50;9.47;;;2.80;99.90;;;;;;5014455;28;20457;-69
2022/01/12 12:50:34;;;;;;;16.53;7.07;;;2.90;99.90;;;;;;5014437;28;20956;-69
2022/01/12 12:53:00;;;;;;;18.23;7.00;;;3.00;99.90;;;;;;5014272;28;20407;-70
2022/01/12 12:55:32;;;;;;;23.63;9.83;;;3.00;99.90;;;;;;5014171;28;20215;-68
2022/01/12 12:57:57;;;;;;;10.77;5.80;;;3.10;99.90;;;;;;5014926;28;20395;-69
2022/01/12 13:00:25;;;;;;;12.83;6.97;;;3.10;99.90;;;;;;5015304;28;20465;-70
2022/01/12 13:02:54;;;;;;;27.57;10.60;;;3.00;99.90;;;;;;5013355;28;20535;-69
2022/01/12 13:05:31;;;;;;;14.10;6.30;;;3.00;99.90;;;;;;5015416;28;20410;-70
2022/01/12 13:07:57;;;;;;;19.80;9.03;;;3.00;99.90;;;;;;5016272;28;20439;-69
2022/01/12 13:10:24;;;;;;;12.00;7.73;;;3.00;99.90;;;;;;5016448;28;20430;-69
2022/01/12 13:12:52;;;;;;;16.03;8.73;;;2.90;99.90;;;;;;5013716;28;20407;-69
2022/01/12 13:15:25;;;;;;;10.10;6.87;;;2.90;99.90;;;;;;5013274;28;20438;-69
2022/01/12 13:18:06;;;;;;;15.73;5.83;;;2.90;99.90;;;;;;5014203;28;20411;-69
2022/01/12 13:23:17;;;;;;;18.00;7.47;;;2.90;99.90;;;;;;4997683;28;20462;-68
2022/01/12 13:25:43;;;;;;;10.20;6.53;;;2.90;99.90;;;;;;5013839;28;20896;-69
2022/01/12 13:28:09;;;;;;;25.53;7.67;;;3.00;99.90;;;;;;5010051;28;20522;-69
2022/01/12 13:30:45;;;;;;;10.23;7.93;;;3.00;99.90;;;;;;5013935;28;20206;-69
2022/01/12 13:33:10;;;;;;;14.87;6.47;;;2.90;99.90;;;;;;5013662;28;20164;-69
2022/01/12 13:35:36;;;;;;;12.13;7.97;;;3.00;99.90;;;;;;5013443;28;20418;-69
2022/01/12 13:38:05;;;;;;;15.87;8.50;;;2.90;99.90;;;;;;5013200;28;20164;-69
2022/01/12 13:40:49;;;;;;;18.63;8.60;;;3.00;99.90;;;;;;5013031;28;20208;-69
2022/01/12 13:43:19;;;;;;;23.80;8.90;;;2.90;99.90;;;;;;5003916;28;20407;-70
2022/01/12 13:45:48;;;;;;;18.63;7.93;;;2.90;99.90;;;;;;5013027;28;20435;-69
2022/01/12 13:48:18;;;;;;;12.20;6.03;;;3.00;99.90;;;;;;5013266;28;20486;-69
2022/01/12 13:50:54;;;;;;;16.73;8.00;;;3.00;99.90;;;;;;5011747;28;20473;-69
2022/01/12 13:53:40;;;;;;;12.83;7.23;;;3.00;99.90;;;;;;4993865;28;20431;-69
2022/01/12 13:56:08;;;;;;;15.10;7.07;;;3.00;99.90;;;;;;4993451;28;20402;-69
2022/01/12 13:58:36;;;;;;;16.87;8.10;;;3.00;99.90;;;;;;4997845;28;20460;-69
2022/01/12 14:01:11;;;;;;;20.90;8.93;;;3.10;99.90;;;;;;5005884;28;20427;-69